Time;durP1;ratioP1;P1;durP2;ratioP2;P2;SDS_P1;SDS_P2;PMS_P1;PMS_P2;Temp;Humidity;BMP_temperature;BMP_pressure;BME280_temperature;BME280_humidity;BME280_pressure;Samples;Min_cycle;Max_cycle;Signal;HPM_P1;HPM_P2
2022/11/20 00:01:27;;;;;;;21.13;12.38;;;;;;;;;;4924891;29;20154;-78
2022/11/20 00:03:53;;;;;;;20.10;11.65;;;;;;;;;;4930062;29;20083;-78
2022/11/20 00:06:20;;;;;;;24.00;13.48;;;;;;;;;;4930785;29;20054;-78
2022/11/20 00:08:47;;;;;;;22.20;11.98;;;;;;;;;;4929154;29;20023;-78
2022/11/20 00:11:23;;;;;;;22.20;12.90;;;;;;;;;;4932041;28;20632;-80
2022/11/20 00:13:50;;;;;;;21.05;12.52;;;;;;;;;;4948422;28;20054;-79
2022/11/20 00:16:18;;;;;;;21.75;12.00;;;;;;;;;;4948554;28;20082;-78
2022/11/20 00:18:45;;;;;;;19.45;11.52;;;;;;;;;;4946937;28;20019;-78
2022/11/20 00:21:13;;;;;;;21.92;12.18;;;;;;;;;;4951603;28;20026;-77
2022/11/20 00:23:39;;;;;;;22.13;11.43;;;;;;;;;;4933184;29;20031;-77
2022/11/20 00:26:06;;;;;;;21.38;11.93;;;;;;;;;;4949313;28;20396;-76
2022/11/20 00:28:32;;;;;;;18.85;11.57;;;;;;;;;;4930042;28;20134;-77
2022/11/20 00:31:17;;;;;;;22.02;12.10;;;;;;;;;;4948045;28;20106;-78
2022/11/20 00:33:43;;;;;;;19.73;12.38;;;;;;;;;;4943273;28;20437;-78
2022/11/20 00:36:20;;;;;;;26.33;15.38;;;;;;;;;;4945679;28;20397;-77
2022/11/20 00:38:46;;;;;;;29.23;15.38;;;;;;;;;;4944191;28;20023;-78
2022/11/20 00:41:13;;;;;;;22.15;12.05;;;;;;;;;;4942820;28;20078;-78
2022/11/20 00:43:39;;;;;;;19.50;12.43;;;;;;;;;;4947011;28;20141;-79
2022/11/20 00:46:19;;;;;;;16.35;11.05;;;;;;;;;;4942933;28;20558;-78
2022/11/20 00:48:45;;;;;;;17.60;11.63;;;;;;;;;;4946671;28;20038;-78
2022/11/20 00:51:12;;;;;;;23.02;11.63;;;;;;;;;;4945255;28;20108;-77
2022/11/20 00:53:38;;;;;;;20.23;12.40;;;;;;;;;;4944986;28;20106;-78
2022/11/20 00:56:11;;;;;;;20.75;12.27;;;;;;;;;;4940679;28;20067;-78
2022/11/20 00:58:38;;;;;;;31.65;17.42;;;;;;;;;;4950188;28;20077;-79
2022/11/20 01:01:06;;;;;;;29.13;17.50;;;;;;;;;;4948785;28;20027;-78
2022/11/20 01:03:33;;;;;;;28.00;14.88;;;;;;;;;;4942121;28;20036;-79
2022/11/20 01:06:12;;;;;;;22.60;11.88;;;;;;;;;;4937695;28;20039;-79
2022/11/20 01:08:39;;;;;;;18.13;12.38;;;;;;;;;;4947540;28;20117;-78
2022/11/20 01:11:09;;;;;;;24.17;14.45;;;;;;;;;;4938807;28;20035;-77
2022/11/20 01:13:39;;;;;;;20.35;12.77;;;;;;;;;;4928754;29;20027;-78
2022/11/20 01:16:07;;;;;;;21.38;12.82;;;;;;;;;;4921128;29;20151;-78
2022/11/20 01:18:35;;;;;;;21.90;13.18;;;;;;;;;;4928462;29;20616;-78
2022/11/20 01:21:02;;;;;;;18.73;11.82;;;;;;;;;;4922045;29;20119;-78
2022/11/20 01:23:31;;;;;;;20.40;12.23;;;;;;;;;;4928056;29;20054;-78
2022/11/20 01:25:57;;;;;;;18.55;11.88;;;;;;;;;;4919724;29;20042;-79
2022/11/20 01:28:23;;;;;;;20.02;13.15;;;;;;;;;;4912855;29;20024;-79
2022/11/20 01:30:49;;;;;;;20.08;12.68;;;;;;;;;;4903190;29;20064;-78
2022/11/20 01:33:15;;;;;;;20.42;11.82;;;;;;;;;;4927581;29;20044;-78
2022/11/20 01:35:41;;;;;;;23.52;12.07;;;;;;;;;;4921308;29;20415;-78
2022/11/20 01:38:07;;;;;;;19.52;12.45;;;;;;;;;;4928918;29;20426;-79
2022/11/20 01:40:34;;;;;;;21.45;13.50;;;;;;;;;;4920821;29;20551;-78
2022/11/20 01:43:22;;;;;;;23.17;12.80;;;;;;;;;;4926171;29;20051;-78
2022/11/20 01:45:55;;;;;;;24.10;13.25;;;;;;;;;;4929190;29;20037;-77
2022/11/20 01:48:22;;;;;;;24.88;13.68;;;;;;;;;;4928156;29;20031;-78
2022/11/20 01:50:48;;;;;;;35.67;18.88;;;;;;;;;;4917504;29;20574;-78
2022/11/20 01:53:17;;;;;;;34.00;15.52;;;;;;;;;;4925231;29;20461;-78
2022/11/20 01:55:49;;;;;;;24.25;14.48;;;;;;;;;;4923211;29;20039;-78
2022/11/20 01:58:16;;;;;;;23.27;14.18;;;;;;;;;;4920150;29;20039;-78
2022/11/20 02:00:42;;;;;;;26.70;15.52;;;;;;;;;;4918382;29;20030;-78
2022/11/20 02:03:09;;;;;;;29.92;15.70;;;;;;;;;;4924377;29;20050;-78
2022/11/20 02:05:39;;;;;;;26.27;15.15;;;;;;;;;;4902536;29;20346;-77
2022/11/20 02:08:06;;;;;;;28.85;14.50;;;;;;;;;;4921828;29;20065;-77
2022/11/20 02:10:34;;;;;;;33.58;16.05;;;;;;;;;;4920799;29;20052;-78
2022/11/20 02:15:45;;;;;;;28.75;15.10;;;;;;;;;;4940743;28;21218;-78
2022/11/20 02:18:12;;;;;;;35.95;16.17;;;;;;;;;;4934177;29;20035;-78
2022/11/20 02:20:39;;;;;;;29.35;15.60;;;;;;;;;;4950134;28;20031;-78
2022/11/20 02:23:19;;;;;;;25.17;13.65;;;;;;;;;;4939510;28;20023;-78
2022/11/20 02:25:46;;;;;;;30.75;14.63;;;;;;;;;;4925862;28;20413;-78
2022/11/20 02:28:12;;;;;;;29.60;14.00;;;;;;;;;;4948298;28;20122;-78
2022/11/20 02:30:38;;;;;;;24.70;13.23;;;;;;;;;;4936512;28;20091;-78
2022/11/20 02:33:06;;;;;;;23.30;12.57;;;;;;;;;;4946816;28;20043;-78
2022/11/20 02:35:32;;;;;;;25.80;14.23;;;;;;;;;;4937147;28;20019;-78
2022/11/20 02:38:00;;;;;;;23.27;13.88;;;;;;;;;;4943535;28;20046;-79
2022/11/20 02:40:26;;;;;;;19.48;12.88;;;;;;;;;;4936652;28;20142;-79
2022/11/20 02:42:53;;;;;;;22.48;12.70;;;;;;;;;;4949027;28;20031;-78
2022/11/20 02:45:19;;;;;;;21.63;13.18;;;;;;;;;;4941643;28;20027;-78
2022/11/20 02:47:45;;;;;;;25.38;13.57;;;;;;;;;;4925523;28;20419;-79
2022/11/20 02:50:11;;;;;;;25.15;12.77;;;;;;;;;;4949120;28;20502;-78
2022/11/20 02:52:37;;;;;;;20.92;13.20;;;;;;;;;;4942928;28;20027;-78
2022/11/20 02:55:04;;;;;;;22.88;13.15;;;;;;;;;;4950565;28;20206;-78
2022/11/20 02:57:30;;;;;;;23.30;14.07;;;;;;;;;;4949944;28;20035;-78
2022/11/20 02:59:56;;;;;;;20.75;13.20;;;;;;;;;;4944679;28;20099;-78
2022/11/20 03:02:22;;;;;;;20.02;12.98;;;;;;;;;;4953171;28;20506;-77
2022/11/20 03:04:48;;;;;;;19.05;11.88;;;;;;;;;;4941813;28;20448;-78
2022/11/20 03:07:14;;;;;;;18.95;12.40;;;;;;;;;;4947595;28;20026;-78
2022/11/20 03:09:40;;;;;;;20.42;11.70;;;;;;;;;;4943726;28;20432;-79
2022/11/20 03:12:06;;;;;;;17.77;11.57;;;;;;;;;;4948931;28;20062;-77
2022/11/20 03:14:32;;;;;;;20.60;11.70;;;;;;;;;;4942529;28;20024;-79
2022/11/20 03:16:58;;;;;;;20.42;10.60;;;;;;;;;;4926657;28;20095;-78
2022/11/20 03:19:24;;;;;;;18.05;12.15;;;;;;;;;;4939653;28;20031;-78
2022/11/20 03:21:50;;;;;;;21.88;13.32;;;;;;;;;;4946647;28;20083;-77
2022/11/20 03:24:17;;;;;;;18.67;11.40;;;;;;;;;;4951345;28;20463;-78
2022/11/20 03:26:43;;;;;;;18.20;10.65;;;;;;;;;;4945442;28;21026;-78
2022/11/20 03:29:09;;;;;;;19.38;11.60;;;;;;;;;;4949023;28;20023;-77
2022/11/20 03:31:42;;;;;;;17.20;10.77;;;;;;;;;;4944825;28;20030;-76
2022/11/20 03:34:09;;;;;;;15.95;9.57;;;;;;;;;;4949345;28;20034;-77
2022/11/20 03:36:35;;;;;;;17.77;10.95;;;;;;;;;;4947663;28;20031;-78
2022/11/20 03:39:01;;;;;;;17.60;11.20;;;;;;;;;;4924065;28;20148;-78
2022/11/20 03:41:28;;;;;;;18.40;10.43;;;;;;;;;;4947248;28;20043;-78
2022/11/20 03:43:56;;;;;;;17.88;9.95;;;;;;;;;;4932023;29;20023;-78
2022/11/20 03:46:22;;;;;;;21.33;9.98;;;;;;;;;;4935174;28;20034;-77
2022/11/20 03:48:48;;;;;;;13.45;10.05;;;;;;;;;;4941552;28;20015;-77
2022/11/20 03:51:17;;;;;;;16.80;11.13;;;;;;;;;;4946346;28;20088;-77
2022/11/20 03:53:45;;;;;;;14.52;9.85;;;;;;;;;;4939270;28;20023;-77
2022/11/20 03:56:11;;;;;;;15.85;9.90;;;;;;;;;;4947679;28;20033;-78
2022/11/20 03:58:41;;;;;;;15.93;10.30;;;;;;;;;;4941761;28;20370;-78
2022/11/20 04:01:09;;;;;;;19.27;11.48;;;;;;;;;;4940758;28;20387;-78
2022/11/20 04:03:36;;;;;;;15.23;10.30;;;;;;;;;;4947811;28;20027;-77
2022/11/20 04:06:06;;;;;;;12.70;9.23;;;;;;;;;;4934313;28;20121;-77
2022/11/20 04:08:32;;;;;;;15.57;10.38;;;;;;;;;;4951445;28;20015;-77
2022/11/20 04:11:31;;;;;;;16.38;11.10;;;;;;;;;;4942329;28;20075;-78
2022/11/20 04:13:58;;;;;;;20.20;11.98;;;;;;;;;;4905707;28;20058;-78
2022/11/20 04:16:25;;;;;;;17.50;10.60;;;;;;;;;;4948634;28;20094;-78
2022/11/20 04:18:52;;;;;;;15.30;9.80;;;;;;;;;;4941692;28;20047;-78
2022/11/20 04:21:18;;;;;;;15.70;9.77;;;;;;;;;;4950032;28;20023;-78
2022/11/20 04:23:45;;;;;;;14.85;10.57;;;;;;;;;;4947720;28;20070;-78
2022/11/20 04:26:11;;;;;;;15.50;10.27;;;;;;;;;;4939685;28;20304;-77
2022/11/20 04:28:38;;;;;;;13.73;9.65;;;;;;;;;;4945101;28;20026;-77
2022/11/20 04:31:08;;;;;;;19.02;11.00;;;;;;;;;;4945286;28;20038;-78
2022/11/20 04:33:34;;;;;;;17.45;10.45;;;;;;;;;;4945185;28;20051;-78
2022/11/20 04:36:17;;;;;;;14.40;9.52;;;;;;;;;;4947202;28;20037;-78
2022/11/20 04:38:43;;;;;;;12.75;8.70;;;;;;;;;;4942907;28;20048;-78
2022/11/20 04:41:14;;;;;;;16.02;9.38;;;;;;;;;;4932786;28;20363;-78
2022/11/20 04:43:40;;;;;;;13.60;9.15;;;;;;;;;;4936966;28;20340;-77
2022/11/20 04:46:06;;;;;;;14.45;9.52;;;;;;;;;;4944428;28;20054;-78
2022/11/20 04:48:32;;;;;;;16.00;9.25;;;;;;;;;;4940283;28;20027;-79
2022/11/20 04:50:58;;;;;;;12.95;8.18;;;;;;;;;;4947160;28;20043;-78
2022/11/20 04:53:24;;;;;;;16.92;9.25;;;;;;;;;;4940282;28;20038;-80
2022/11/20 04:55:50;;;;;;;16.65;9.75;;;;;;;;;;4951570;28;20430;-79
2022/11/20 04:58:16;;;;;;;15.10;10.40;;;;;;;;;;4939791;28;20078;-79
2022/11/20 05:00:43;;;;;;;12.65;9.20;;;;;;;;;;4941136;28;20361;-80
2022/11/20 05:03:09;;;;;;;16.10;9.75;;;;;;;;;;4939196;28;20019;-76
2022/11/20 05:05:35;;;;;;;14.85;9.73;;;;;;;;;;4925705;28;20023;-78
2022/11/20 05:08:01;;;;;;;16.60;9.88;;;;;;;;;;4940292;28;20047;-81
2022/11/20 05:10:27;;;;;;;13.15;9.27;;;;;;;;;;4938879;28;20067;-81
2022/11/20 05:12:54;;;;;;;13.05;8.93;;;;;;;;;;4941198;28;20383;-79
2022/11/20 05:15:20;;;;;;;113.00;61.13;;;;;;;;;;4938893;28;20039;-80
2022/11/20 05:17:49;;;;;;;102.88;50.65;;;;;;;;;;4949105;28;20047;-79
2022/11/20 05:20:15;;;;;;;18.95;12.90;;;;;;;;;;4944399;28;20388;-80
2022/11/20 05:22:41;;;;;;;16.40;10.95;;;;;;;;;;4946578;28;20092;-79
2022/11/20 05:25:07;;;;;;;11.90;9.18;;;;;;;;;;4931771;28;20032;-79
2022/11/20 05:27:33;;;;;;;15.82;9.93;;;;;;;;;;4937103;28;20126;-80
2022/11/20 05:29:59;;;;;;;13.38;9.85;;;;;;;;;;4931633;28;20032;-80
2022/11/20 05:32:25;;;;;;;16.17;10.65;;;;;;;;;;4937107;28;20031;-81
2022/11/20 05:34:52;;;;;;;15.07;10.20;;;;;;;;;;4935635;28;20042;-80
2022/11/20 05:37:18;;;;;;;18.55;11.43;;;;;;;;;;4931406;28;20063;-80
2022/11/20 05:39:44;;;;;;;19.83;11.27;;;;;;;;;;4936697;28;20508;-79
2022/11/20 05:44:55;;;;;;;21.60;12.45;;;;;;;;;;4938802;28;20103;-80
2022/11/20 05:47:21;;;;;;;314.42;158.38;;;;;;;;;;4929894;28;20046;-80
2022/11/20 05:49:47;;;;;;;18.65;11.98;;;;;;;;;;4939535;28;20054;-80
2022/11/20 05:52:13;;;;;;;16.63;10.60;;;;;;;;;;4933837;28;20028;-78
2022/11/20 05:54:39;;;;;;;16.45;10.75;;;;;;;;;;4933351;28;20049;-80
2022/11/20 05:57:05;;;;;;;16.83;10.50;;;;;;;;;;4932697;28;20051;-80
2022/11/20 05:59:31;;;;;;;16.73;10.02;;;;;;;;;;4927105;28;20103;-80
2022/11/20 06:01:57;;;;;;;13.15;10.00;;;;;;;;;;4933467;28;20035;-80
2022/11/20 06:04:24;;;;;;;18.38;11.45;;;;;;;;;;4931076;28;20196;-79
2022/11/20 06:06:50;;;;;;;16.55;9.85;;;;;;;;;;4910038;28;20073;-79
2022/11/20 06:09:16;;;;;;;15.88;10.55;;;;;;;;;;4933918;28;20568;-80
2022/11/20 06:11:43;;;;;;;16.20;10.15;;;;;;;;;;4912502;28;20051;-80
2022/11/20 06:14:09;;;;;;;17.17;10.30;;;;;;;;;;4935724;28;20050;-80
2022/11/20 06:16:35;;;;;;;14.32;9.32;;;;;;;;;;4928306;28;20476;-80
2022/11/20 06:19:01;;;;;;;16.77;10.27;;;;;;;;;;4934901;28;20385;-80
2022/11/20 06:21:27;;;;;;;14.98;9.90;;;;;;;;;;4932149;28;20051;-80
2022/11/20 06:23:56;;;;;;;16.25;10.63;;;;;;;;;;4936528;28;20047;-80
2022/11/20 06:26:23;;;;;;;13.95;9.82;;;;;;;;;;4923929;28;20441;-77
2022/11/20 06:28:49;;;;;;;16.92;9.63;;;;;;;;;;4937690;28;20076;-77
2022/11/20 06:31:17;;;;;;;16.17;11.13;;;;;;;;;;4936876;28;20114;-78
2022/11/20 06:33:43;;;;;;;11.82;8.95;;;;;;;;;;4934329;28;20450;-82
2022/11/20 06:36:10;;;;;;;18.23;10.63;;;;;;;;;;4929413;28;20040;-78
2022/11/20 06:38:36;;;;;;;14.15;9.13;;;;;;;;;;4931176;28;20502;-78
2022/11/20 06:41:03;;;;;;;14.82;9.63;;;;;;;;;;4930040;28;20116;-79
2022/11/20 06:43:29;;;;;;;13.70;9.30;;;;;;;;;;4922531;28;20123;-78
2022/11/20 06:45:56;;;;;;;17.05;8.95;;;;;;;;;;4929427;28;20035;-78
2022/11/20 06:48:23;;;;;;;15.30;9.25;;;;;;;;;;4934729;28;20032;-78
2022/11/20 06:50:49;;;;;;;14.85;10.27;;;;;;;;;;4930504;28;21393;-78
2022/11/20 06:53:15;;;;;;;14.85;9.75;;;;;;;;;;4935849;28;20070;-78
2022/11/20 06:55:45;;;;;;;16.48;10.82;;;;;;;;;;4928620;28;20047;-79
2022/11/20 06:58:12;;;;;;;20.65;12.15;;;;;;;;;;4934583;28;20461;-79
2022/11/20 07:00:38;;;;;;;22.42;13.38;;;;;;;;;;4937903;28;20022;-79
2022/11/20 07:03:05;;;;;;;18.77;11.50;;;;;;;;;;4933122;28;20093;-78
2022/11/20 07:05:31;;;;;;;25.98;14.68;;;;;;;;;;4911176;28;20143;-78
2022/11/20 07:07:57;;;;;;;25.00;13.68;;;;;;;;;;4933313;28;20042;-79
2022/11/20 07:10:23;;;;;;;17.67;11.55;;;;;;;;;;4929199;28;20166;-79
2022/11/20 07:12:50;;;;;;;15.40;10.35;;;;;;;;;;4931510;28;20084;-78
2022/11/20 07:15:16;;;;;;;14.75;9.98;;;;;;;;;;4934572;28;20082;-79
2022/11/20 07:17:43;;;;;;;16.73;11.13;;;;;;;;;;4929036;28;20043;-77
2022/11/20 07:20:09;;;;;;;12.25;9.15;;;;;;;;;;4926193;28;20063;-77
2022/11/20 07:22:35;;;;;;;17.13;10.73;;;;;;;;;;4932640;28;20127;-75
2022/11/20 07:25:01;;;;;;;13.13;9.93;;;;;;;;;;4926822;28;20045;-76
2022/11/20 07:27:28;;;;;;;25.48;14.63;;;;;;;;;;4934472;28;20495;-80
2022/11/20 07:29:54;;;;;;;25.80;14.07;;;;;;;;;;4929947;28;20114;-78
2022/11/20 07:32:20;;;;;;;14.63;9.00;;;;;;;;;;4935646;28;20066;-76
2022/11/20 07:34:46;;;;;;;13.27;9.75;;;;;;;;;;4929590;28;20130;-78
2022/11/20 07:37:12;;;;;;;16.60;9.98;;;;;;;;;;4932224;28;20129;-77
2022/11/20 07:39:38;;;;;;;17.83;10.50;;;;;;;;;;4930561;28;20706;-78
2022/11/20 07:42:04;;;;;;;17.60;9.52;;;;;;;;;;4928794;28;20034;-81
2022/11/20 07:44:30;;;;;;;14.88;9.43;;;;;;;;;;4930808;28;20025;-77
2022/11/20 07:46:56;;;;;;;16.95;10.48;;;;;;;;;;4928490;28;20043;-77
2022/11/20 07:49:22;;;;;;;14.07;9.82;;;;;;;;;;4925948;28;20035;-79
2022/11/20 07:51:51;;;;;;;16.80;10.63;;;;;;;;;;4932978;28;20050;-79
2022/11/20 07:54:16;;;;;;;16.67;10.25;;;;;;;;;;4935739;28;20040;-77
2022/11/20 07:56:42;;;;;;;13.15;9.75;;;;;;;;;;4932616;28;20027;-77
2022/11/20 07:59:08;;;;;;;22.08;10.77;;;;;;;;;;4934381;28;20035;-76
2022/11/20 08:01:34;;;;;;;16.98;10.30;;;;;;;;;;4928567;28;20150;-78
2022/11/20 08:04:00;;;;;;;21.38;10.00;;;;;;;;;;4926516;28;20039;-77
2022/11/20 08:06:26;;;;;;;34.83;23.33;;;;;;;;;;4933920;28;20039;-77
2022/11/20 08:08:52;;;;;;;19.20;12.07;;;;;;;;;;4938935;28;20515;-76
2022/11/20 08:14:12;;;;;;;21.42;14.50;;;;;;;;;;4926617;28;20179;-78
2022/11/20 08:16:42;;;;;;;16.67;11.68;;;;;;;;;;4920014;28;20047;-78
2022/11/20 08:19:08;;;;;;;13.15;9.43;;;;;;;;;;4928170;28;20543;-77
2022/11/20 08:21:34;;;;;;;16.08;9.25;;;;;;;;;;4933484;28;20459;-76
2022/11/20 08:24:00;;;;;;;19.27;10.77;;;;;;;;;;4928158;28;20430;-77
2022/11/20 08:26:26;;;;;;;18.35;11.35;;;;;;;;;;4932819;28;20077;-75
2022/11/20 08:28:56;;;;;;;16.10;10.23;;;;;;;;;;4914819;28;20031;-77
2022/11/20 08:31:23;;;;;;;13.55;9.95;;;;;;;;;;4920152;28;20046;-78
2022/11/20 08:33:49;;;;;;;14.57;9.35;;;;;;;;;;4925184;28;20039;-79
2022/11/20 08:36:15;;;;;;;18.15;10.18;;;;;;;;;;4933500;28;20027;-78
2022/11/20 08:38:41;;;;;;;24.48;16.13;;;;;;;;;;4928078;28;20165;-76
2022/11/20 08:41:26;;;;;;;21.38;13.32;;;;;;;;;;4937942;28;20040;-76
2022/11/20 08:44:06;;;;;;;13.52;9.40;;;;;;;;;;4927210;28;20039;-75
2022/11/20 08:46:40;;;;;;;14.38;9.63;;;;;;;;;;4932346;28;20031;-77
2022/11/20 08:49:07;;;;;;;16.08;8.43;;;;;;;;;;4912102;28;20035;-79
2022/11/20 08:51:33;;;;;;;14.75;9.07;;;;;;;;;;4937076;28;20096;-79
2022/11/20 08:53:59;;;;;;;14.70;8.98;;;;;;;;;;4928622;28;20045;-79
2022/11/20 08:56:25;;;;;;;13.40;8.82;;;;;;;;;;4914000;28;20130;-79
2022/11/20 08:58:52;;;;;;;14.38;9.32;;;;;;;;;;4919805;28;20757;-78
2022/11/20 09:01:18;;;;;;;11.32;7.65;;;;;;;;;;4923822;28;20031;-79
2022/11/20 09:03:44;;;;;;;10.75;7.35;;;;;;;;;;4914414;28;20138;-78
2022/11/20 09:06:10;;;;;;;12.52;8.52;;;;;;;;;;4924112;28;20039;-78
2022/11/20 09:08:37;;;;;;;14.95;8.57;;;;;;;;;;4929954;28;20036;-79
2022/11/20 09:11:03;;;;;;;12.38;7.88;;;;;;;;;;4926270;28;20464;-78
2022/11/20 09:13:29;;;;;;;16.98;8.20;;;;;;;;;;4933698;28;20091;-74
2022/11/20 09:16:04;;;;;;;12.85;8.73;;;;;;;;;;4927726;28;20334;-78
2022/11/20 09:18:32;;;;;;;12.40;8.45;;;;;;;;;;4920241;28;20114;-78
2022/11/20 09:20:59;;;;;;;13.13;8.60;;;;;;;;;;4924106;28;20031;-78
2022/11/20 09:23:25;;;;;;;11.98;8.30;;;;;;;;;;4934882;28;20031;-78
2022/11/20 09:25:52;;;;;;;10.20;8.15;;;;;;;;;;4930259;28;20039;-76
2022/11/20 09:28:18;;;;;;;12.15;8.10;;;;;;;;;;4936424;28;20019;-77
2022/11/20 09:30:44;;;;;;;12.00;8.90;;;;;;;;;;4929259;28;20565;-78
2022/11/20 09:33:10;;;;;;;15.65;8.43;;;;;;;;;;4924396;28;20138;-75
2022/11/20 09:35:37;;;;;;;15.20;8.68;;;;;;;;;;4925848;28;20043;-80
2022/11/20 09:38:07;;;;;;;11.55;8.52;;;;;;;;;;4934688;28;20055;-78
2022/11/20 09:40:34;;;;;;;15.73;8.30;;;;;;;;;;4929685;28;20061;-78
2022/11/20 09:43:19;;;;;;;12.27;8.70;;;;;;;;;;4935581;28;20369;-78
2022/11/20 09:45:57;;;;;;;17.80;10.48;;;;;;;;;;4929779;28;20489;-79
2022/11/20 09:48:42;;;;;;;15.20;9.85;;;;;;;;;;4938580;28;20047;-80
2022/11/20 09:51:08;;;;;;;14.18;9.25;;;;;;;;;;4938427;28;20035;-78
2022/11/20 09:53:42;;;;;;;15.15;9.10;;;;;;;;;;4927635;28;21435;-79
2022/11/20 09:56:09;;;;;;;13.32;7.82;;;;;;;;;;4932399;28;20058;-79
2022/11/20 09:59:01;;;;;;;11.55;7.63;;;;;;;;;;4937081;28;20366;-79
2022/11/20 10:01:29;;;;;;;14.77;9.77;;;;;;;;;;4927173;28;20055;-81
2022/11/20 10:04:25;;;;;;;16.27;10.90;;;;;;;;;;4932282;28;20034;-80
2022/11/20 10:07:01;;;;;;;25.02;14.43;;;;;;;;;;4928096;28;20054;-77
2022/11/20 10:09:33;;;;;;;20.38;11.95;;;;;;;;;;4935617;28;20046;-81
2022/11/20 10:12:11;;;;;;;14.50;8.98;;;;;;;;;;4935727;28;20130;-78
2022/11/20 10:14:56;;;;;;;12.70;7.93;;;;;;;;;;4934053;28;20316;-73
2022/11/20 10:17:33;;;;;;;10.77;7.25;;;;;;;;;;4937744;28;20042;-79
2022/11/20 10:19:59;;;;;;;14.30;8.07;;;;;;;;;;4940497;28;20035;-76
2022/11/20 10:22:31;;;;;;;10.80;7.18;;;;;;;;;;4942229;28;20082;-73
2022/11/20 10:25:11;;;;;;;10.25;7.22;;;;;;;;;;4934935;28;20429;-73
2022/11/20 10:27:49;;;;;;;10.20;7.55;;;;;;;;;;4939723;28;20049;-74
2022/11/20 10:30:17;;;;;;;11.57;7.70;;;;;;;;;;4935275;28;20542;-72
2022/11/20 10:32:44;;;;;;;8.80;6.45;;;;;;;;;;4938894;28;20046;-75
2022/11/20 10:35:22;;;;;;;11.07;6.80;;;;;;;;;;4932521;28;20444;-75
2022/11/20 10:37:51;;;;;;;15.18;8.68;;;;;;;;;;4936465;28;20066;-74
2022/11/20 10:40:17;;;;;;;13.90;8.02;;;;;;;;;;4940517;28;20138;-79
2022/11/20 10:42:45;;;;;;;12.02;7.15;;;;;;;;;;4937483;28;20046;-71
2022/11/20 10:45:20;;;;;;;12.45;6.22;;;;;;;;;;4932584;28;20040;-71
2022/11/20 10:47:46;;;;;;;9.68;5.97;;;;;;;;;;4921980;28;20043;-72
2022/11/20 10:50:15;;;;;;;7.47;5.80;;;;;;;;;;4933768;28;20661;-76
2022/11/20 10:52:47;;;;;;;9.43;6.57;;;;;;;;;;4937388;28;20031;-70
2022/11/20 10:55:32;;;;;;;8.07;5.75;;;;;;;;;;4919091;28;20757;-72
2022/11/20 10:58:19;;;;;;;7.55;5.15;;;;;;;;;;4934192;28;20133;-71
2022/11/20 11:00:45;;;;;;;44.00;23.38;;;;;;;;;;4929965;28;20124;-70
2022/11/20 11:03:21;;;;;;;16.92;10.07;;;;;;;;;;4943279;28;20110;-69
2022/11/20 11:06:06;;;;;;;6.38;5.28;;;;;;;;;;4933784;28;20418;-73
2022/11/20 11:08:35;;;;;;;6.07;4.63;;;;;;;;;;4937383;28;20066;-75
2022/11/20 11:11:07;;;;;;;7.13;5.05;;;;;;;;;;4931455;28;20312;-70
2022/11/20 11:13:33;;;;;;;7.22;4.57;;;;;;;;;;4935826;28;20058;-74
2022/11/20 11:15:59;;;;;;;8.82;5.00;;;;;;;;;;4951453;28;20035;-71
2022/11/20 11:18:29;;;;;;;8.15;5.38;;;;;;;;;;4940801;28;20565;-70
2022/11/20 11:20:56;;;;;;;11.10;6.97;;;;;;;;;;4934412;28;20027;-77
2022/11/20 11:23:29;;;;;;;8.32;6.10;;;;;;;;;;4922754;28;20020;-70
2022/11/20 11:25:59;;;;;;;7.53;5.90;;;;;;;;;;4936103;28;20453;-71
2022/11/20 11:28:27;;;;;;;6.95;5.50;;;;;;;;;;4941355;28;20041;-77
2022/11/20 11:30:53;;;;;;;8.88;5.13;;;;;;;;;;4930807;28;20053;-76
2022/11/20 11:33:21;;;;;;;8.10;5.50;;;;;;;;;;4937462;28;20405;-70
2022/11/20 11:35:48;;;;;;;8.77;5.60;;;;;;;;;;4935231;28;20757;-68
2022/11/20 11:38:17;;;;;;;11.50;7.13;;;;;;;;;;4941344;28;20130;-69
2022/11/20 11:40:44;;;;;;;11.43;7.28;;;;;;;;;;4934165;28;20051;-71
2022/11/20 11:46:24;;;;;;;10.50;5.38;;;;;;;;;;4927210;28;20058;-69
2022/11/20 11:48:59;;;;;;;8.38;5.72;;;;;;;;;;4940488;28;20051;-68
2022/11/20 11:51:32;;;;;;;7.75;4.82;;;;;;;;;;4918672;28;20028;-69
2022/11/20 11:53:59;;;;;;;6.82;4.80;;;;;;;;;;4937331;28;20388;-69
2022/11/20 11:56:34;;;;;;;7.20;5.20;;;;;;;;;;4938829;28;20217;-70
2022/11/20 11:59:05;;;;;;;6.20;4.63;;;;;;;;;;4930358;28;20089;-72
2022/11/20 12:01:34;;;;;;;7.63;4.90;;;;;;;;;;4937640;28;20036;-70
2022/11/20 12:04:05;;;;;;;7.65;5.03;;;;;;;;;;4934273;28;20043;-71
2022/11/20 12:06:31;;;;;;;6.90;4.95;;;;;;;;;;4934372;28;20105;-70
2022/11/20 12:09:03;;;;;;;6.60;4.93;;;;;;;;;;4933862;28;20027;-75
2022/11/20 12:11:39;;;;;;;6.68;4.80;;;;;;;;;;4925963;28;20044;-70
2022/11/20 12:14:12;;;;;;;9.35;6.07;;;;;;;;;;4930639;28;20052;-78
2022/11/20 12:16:39;;;;;;;7.55;4.82;;;;;;;;;;4937575;28;20127;-76
2022/11/20 12:19:11;;;;;;;6.97;4.82;;;;;;;;;;4938616;28;20116;-74
2022/11/20 12:21:43;;;;;;;8.25;5.15;;;;;;;;;;4931285;28;20026;-70
2022/11/20 12:24:09;;;;;;;;;;;;;;;;;;4934363;28;20566;-70
2022/11/20 12:26:41;;;;;;;6.20;4.82;;;;;;;;;;4939726;28;19930;-71
2022/11/20 12:29:13;;;;;;;6.53;5.40;;;;;;;;;;4932784;28;20469;-77
2022/11/20 12:31:58;;;;;;;5.78;4.80;;;;;;;;;;4940302;28;20039;-72
2022/11/20 12:34:41;;;;;;;6.90;4.65;;;;;;;;;;4932229;28;20038;-77
2022/11/20 12:37:10;;;;;;;5.22;4.03;;;;;;;;;;4937565;28;20050;-78
2022/11/20 12:39:43;;;;;;;5.85;4.78;;;;;;;;;;4931436;28;20095;-72
2022/11/20 12:45:18;;;;;;;9.30;6.05;;;;;;;;;;4937595;28;20157;-70
2022/11/20 12:47:57;;;;;;;10.70;6.18;;;;;;;;;;4929875;28;20553;-77
2022/11/20 12:50:41;;;;;;;7.03;4.68;;;;;;;;;;4926893;28;20410;-72
2022/11/20 12:53:28;;;;;;;5.93;4.90;;;;;;;;;;4928478;28;20055;-74
2022/11/20 12:55:57;;;;;;;5.63;4.10;;;;;;;;;;4926577;28;20039;-75
2022/11/20 12:58:32;;;;;;;7.55;4.72;;;;;;;;;;4932631;28;20028;-71
2022/11/20 13:01:39;;;;;;;6.97;5.38;;;;;;;;;;4928013;28;20058;-73
2022/11/20 13:04:20;;;;;;;5.97;4.45;;;;;;;;;;4935215;28;20029;-74
2022/11/20 13:06:47;;;;;;;9.20;5.53;;;;;;;;;;4934423;28;20510;-74
2022/11/20 13:09:14;;;;;;;8.60;5.60;;;;;;;;;;4933796;28;20114;-77
2022/11/20 13:11:43;;;;;;;6.43;4.80;;;;;;;;;;4931634;28;20507;-76
2022/11/20 13:14:35;;;;;;;7.82;4.38;;;;;;;;;;4937709;28;20039;-70
2022/11/20 13:17:10;;;;;;;9.13;5.70;;;;;;;;;;4879830;29;20054;-70
2022/11/20 13:19:36;;;;;;;6.50;4.55;;;;;;;;;;4922696;28;20457;-73
2022/11/20 13:22:02;;;;;;;6.40;4.70;;;;;;;;;;4930616;28;20063;-72
2022/11/20 13:24:30;;;;;;;7.93;5.80;;;;;;;;;;4937002;28;20031;-72
2022/11/20 13:27:05;;;;;;;8.02;5.72;;;;;;;;;;4933692;28;20127;-72
2022/11/20 13:29:32;;;;;;;8.23;5.75;;;;;;;;;;4939750;28;20461;-77
2022/11/20 13:32:05;;;;;;;10.05;6.25;;;;;;;;;;4932282;28;20539;-70
2022/11/20 13:34:31;;;;;;;7.50;5.38;;;;;;;;;;4937815;28;20026;-71
2022/11/20 13:37:00;;;;;;;7.07;5.18;;;;;;;;;;4923496;28;20051;-70
2022/11/20 13:39:30;;;;;;;8.82;6.07;;;;;;;;;;4935935;28;20113;-71
2022/11/20 13:42:04;;;;;;;6.68;5.15;;;;;;;;;;4935615;28;20019;-74
2022/11/20 13:44:44;;;;;;;9.23;6.65;;;;;;;;;;4929026;28;20060;-73
2022/11/20 13:47:27;;;;;;;9.35;6.45;;;;;;;;;;4934365;28;20064;-78
2022/11/20 13:49:57;;;;;;;10.35;6.00;;;;;;;;;;4935501;28;21737;-77
2022/11/20 13:52:23;;;;;;;10.48;5.72;;;;;;;;;;4932321;28;20032;-73
2022/11/20 13:54:59;;;;;;;8.55;5.95;;;;;;;;;;4927192;28;20036;-71
2022/11/20 13:57:43;;;;;;;7.85;5.45;;;;;;;;;;4931432;28;20048;-73
2022/11/20 14:00:17;;;;;;;9.57;6.28;;;;;;;;;;4936505;28;20150;-72
2022/11/20 14:02:44;;;;;;;13.93;8.98;;;;;;;;;;4927168;28;20138;-74
2022/11/20 14:05:20;;;;;;;42.65;19.05;;;;;;;;;;4937718;28;20040;-73
2022/11/20 14:07:46;;;;;;;16.20;8.95;;;;;;;;;;4932014;28;20043;-70
2022/11/20 14:10:23;;;;;;;18.08;10.15;;;;;;;;;;4936479;28;20225;-69
2022/11/20 14:12:50;;;;;;;49.03;27.02;;;;;;;;;;4927934;28;20509;-71
2022/11/20 14:15:33;;;;;;;23.48;12.40;;;;;;;;;;4921195;28;20039;-73
2022/11/20 14:18:00;;;;;;;23.45;14.88;;;;;;;;;;4925873;28;20045;-76
2022/11/20 14:20:28;;;;;;;21.20;12.07;;;;;;;;;;4937201;28;20134;-72
2022/11/20 14:22:54;;;;;;;12.50;8.80;;;;;;;;;;4934574;28;20035;-71
2022/11/20 14:25:23;;;;;;;44.72;24.00;;;;;;;;;;4929878;28;20342;-73
2022/11/20 14:27:52;;;;;;;16.15;9.65;;;;;;;;;;4926108;28;20230;-71
2022/11/20 14:30:23;;;;;;;9.35;6.75;;;;;;;;;;4939447;28;20045;-70
2022/11/20 14:32:50;;;;;;;17.17;7.95;;;;;;;;;;4933737;28;20043;-71
2022/11/20 14:35:22;;;;;;;11.13;8.13;;;;;;;;;;4913981;28;20038;-74
2022/11/20 14:37:48;;;;;;;9.40;6.57;;;;;;;;;;4938201;28;20349;-74
2022/11/20 14:40:26;;;;;;;10.90;7.20;;;;;;;;;;4931643;28;20053;-73
2022/11/20 14:42:52;;;;;;;17.77;8.75;;;;;;;;;;4937970;28;20042;-72
2022/11/20 14:45:19;;;;;;;12.25;6.97;;;;;;;;;;4933780;28;20553;-72
2022/11/20 14:47:45;;;;;;;18.65;9.75;;;;;;;;;;4940303;28;20464;-72
2022/11/20 14:50:23;;;;;;;17.45;8.50;;;;;;;;;;4934401;28;20061;-71
2022/11/20 14:52:56;;;;;;;12.15;7.60;;;;;;;;;;4935630;28;20142;-73